sensor_id;sensor_type;location;lat;lon;timestamp;pressure;altitude;pressure_sealevel;temperature;humidity
62895;BME280;49204;44.916;37.998;2022-10-13T00:01:34;102063.33;;;4.08;87.12
62895;BME280;49204;44.916;37.998;2022-10-13T00:04:03;102061.59;;;4.06;87.04
62895;BME280;49204;44.916;37.998;2022-10-13T00:06:31;102067.25;;;4.06;87.05
62895;BME280;49204;44.916;37.998;2022-10-13T00:09:00;102065.95;;;4.06;87.11
62895;BME280;49204;44.916;37.998;2022-10-13T00:11:29;102068.13;;;4.08;87.09
62895;BME280;49204;44.916;37.998;2022-10-13T00:14:00;102062.50;;;4.10;87.10
62895;BME280;49204;44.916;37.998;2022-10-13T00:16:31;102066.45;;;4.13;87.00
62895;BME280;49204;44.916;37.998;2022-10-13T00:19:00;102064.70;;;4.14;86.94
62895;BME280;49204;44.916;37.998;2022-10-13T00:21:28;102061.63;;;4.11;87.07
62895;BME280;49204;44.916;37.998;2022-10-13T00:23:57;102058.13;;;4.09;87.11
62895;BME280;49204;44.916;37.998;2022-10-13T00:26:26;102062.03;;;4.06;87.18
62895;BME280;49204;44.916;37.998;2022-10-13T00:28:55;102058.53;;;4.02;87.16
62895;BME280;49204;44.916;37.998;2022-10-13T00:31:27;102060.23;;;3.99;87.34
62895;BME280;49204;44.916;37.998;2022-10-13T00:33:58;102058.89;;;3.96;87.39
62895;BME280;49204;44.916;37.998;2022-10-13T00:36:27;102063.17;;;3.91;87.46
62895;BME280;49204;44.916;37.998;2022-10-13T00:38:56;102058.38;;;3.89;87.55
62895;BME280;49204;44.916;37.998;2022-10-13T00:41:26;102060.56;;;3.88;87.56
62895;BME280;49204;44.916;37.998;2022-10-13T00:43:57;102052.75;;;3.88;87.51
62895;BME280;49204;44.916;37.998;2022-10-13T00:46:31;102058.38;;;3.85;87.50
62895;BME280;49204;44.916;37.998;2022-10-13T00:49:11;102059.22;;;3.84;87.48
62895;BME280;49204;44.916;37.998;2022-10-13T00:54:31;102052.23;;;3.80;87.44
62895;BME280;49204;44.916;37.998;2022-10-13T00:57:02;102055.25;;;3.80;87.46
62895;BME280;49204;44.916;37.998;2022-10-13T00:59:31;102056.98;;;3.76;87.38
62895;BME280;49204;44.916;37.998;2022-10-13T01:02:01;102055.17;;;3.72;87.37
62895;BME280;49204;44.916;37.998;2022-10-13T01:04:33;102053.86;;;3.69;87.39
62895;BME280;49204;44.916;37.998;2022-10-13T01:07:03;102058.59;;;3.66;87.41
62895;BME280;49204;44.916;37.998;2022-10-13T01:09:33;102056.38;;;3.63;87.50
62895;BME280;49204;44.916;37.998;2022-10-13T01:12:33;102055.49;;;3.61;87.46
62895;BME280;49204;44.916;37.998;2022-10-13T01:15:02;102054.58;;;3.57;87.47
62895;BME280;49204;44.916;37.998;2022-10-13T01:20:23;102051.06;;;3.51;87.87
62895;BME280;49204;44.916;37.998;2022-10-13T01:26:41;102056.70;;;3.52;87.97
62895;BME280;49204;44.916;37.998;2022-10-13T01:28:44;102052.83;;;3.55;87.88
62895;BME280;49204;44.916;37.998;2022-10-13T01:31:29;102051.98;;;3.57;87.74
62895;BME280;49204;44.916;37.998;2022-10-13T01:34:13;102052.84;;;3.58;87.61
62895;BME280;49204;44.916;37.998;2022-10-13T01:39:38;102049.77;;;3.54;87.97
62895;BME280;49204;44.916;37.998;2022-10-13T01:42:29;102044.93;;;3.48;88.19
62895;BME280;49204;44.916;37.998;2022-10-13T01:44:55;102047.52;;;3.45;88.35
62895;BME280;49204;44.916;37.998;2022-10-13T01:47:25;102046.66;;;3.45;88.22
62895;BME280;49204;44.916;37.998;2022-10-13T01:49:55;102046.63;;;3.43;88.36
62895;BME280;49204;44.916;37.998;2022-10-13T01:52:26;102050.08;;;3.42;88.43
62895;BME280;49204;44.916;37.998;2022-10-13T01:54:55;102045.31;;;3.42;88.51
62895;BME280;49204;44.916;37.998;2022-10-13T01:57:35;102047.45;;;3.41;88.58
62895;BME280;49204;44.916;37.998;2022-10-13T02:00:16;102050.93;;;3.40;88.62
62895;BME280;49204;44.916;37.998;2022-10-13T02:05:40;102055.64;;;3.34;88.59
62895;BME280;49204;44.916;37.998;2022-10-13T02:08:24;102050.82;;;3.31;88.62
62895;BME280;49204;44.916;37.998;2022-10-13T02:10:58;102050.75;;;3.26;88.64
62895;BME280;49204;44.916;37.998;2022-10-13T02:13:29;102049.44;;;3.23;88.68
62895;BME280;49204;44.916;37.998;2022-10-13T02:16:00;102051.53;;;3.19;88.81
62895;BME280;49204;44.916;37.998;2022-10-13T02:18:32;102043.67;;;3.14;88.80
62895;BME280;49204;44.916;37.998;2022-10-13T02:21:03;102044.54;;;3.15;88.87
62895;BME280;49204;44.916;37.998;2022-10-13T02:23:32;102045.39;;;3.12;88.94
62895;BME280;49204;44.916;37.998;2022-10-13T02:26:01;102047.09;;;3.12;89.03
62895;BME280;49204;44.916;37.998;2022-10-13T02:28:30;102043.58;;;3.08;89.04
62895;BME280;49204;44.916;37.998;2022-10-13T02:30:58;102047.05;;;3.07;89.12
62895;BME280;49204;44.916;37.998;2022-10-13T02:33:27;102043.13;;;3.05;89.05
62895;BME280;49204;44.916;37.998;2022-10-13T02:35:56;102044.00;;;3.04;89.00
62895;BME280;49204;44.916;37.998;2022-10-13T02:38:25;102042.26;;;3.05;89.08
62895;BME280;49204;44.916;37.998;2022-10-13T02:40:54;102045.30;;;3.04;89.15
62895;BME280;49204;44.916;37.998;2022-10-13T02:43:23;102048.73;;;3.03;89.18
62895;BME280;49204;44.916;37.998;2022-10-13T02:45:52;102046.55;;;3.01;89.26
62895;BME280;49204;44.916;37.998;2022-10-13T02:48:21;102043.95;;;3.01;89.21
62895;BME280;49204;44.916;37.998;2022-10-13T02:50:50;102045.25;;;3.01;89.20
62895;BME280;49204;44.916;37.998;2022-10-13T02:53:19;102041.73;;;2.98;89.24
62895;BME280;49204;44.916;37.998;2022-10-13T02:55:48;102035.63;;;2.96;89.25
62895;BME280;49204;44.916;37.998;2022-10-13T02:58:16;102041.70;;;2.96;89.29
62895;BME280;49204;44.916;37.998;2022-10-13T03:00:45;102045.17;;;2.97;89.30
62895;BME280;49204;44.916;37.998;2022-10-13T03:03:14;102043.00;;;2.96;89.28
62895;BME280;49204;44.916;37.998;2022-10-13T03:05:44;102045.17;;;2.95;89.43
62895;BME280;49204;44.916;37.998;2022-10-13T03:08:13;102045.12;;;2.92;89.44
62895;BME280;49204;44.916;37.998;2022-10-13T03:10:43;102044.26;;;2.92;89.37
62895;BME280;49204;44.916;37.998;2022-10-13T03:13:11;102045.98;;;2.93;89.40
62895;BME280;49204;44.916;37.998;2022-10-13T03:15:40;102041.65;;;2.93;89.40
62895;BME280;49204;44.916;37.998;2022-10-13T03:18:09;102043.39;;;2.93;89.50
62895;BME280;49204;44.916;37.998;2022-10-13T03:20:38;102046.86;;;2.92;89.56
62895;BME280;49204;44.916;37.998;2022-10-13T03:23:07;102040.36;;;2.92;89.57
62895;BME280;49204;44.916;37.998;2022-10-13T03:25:36;102040.33;;;2.90;89.60
62895;BME280;49204;44.916;37.998;2022-10-13T03:28:05;102037.27;;;2.89;89.53
62895;BME280;49204;44.916;37.998;2022-10-13T03:30:35;102032.05;;;2.86;89.60
62895;BME280;49204;44.916;37.998;2022-10-13T03:33:04;102040.72;;;2.86;89.59
62895;BME280;49204;44.916;37.998;2022-10-13T03:35:33;102038.98;;;2.87;89.62
62895;BME280;49204;44.916;37.998;2022-10-13T03:38:01;102037.70;;;2.88;89.67
62895;BME280;49204;44.916;37.998;2022-10-13T03:40:31;102038.59;;;2.90;89.63
62895;BME280;49204;44.916;37.998;2022-10-13T03:43:02;102038.56;;;2.89;89.63
62895;BME280;49204;44.916;37.998;2022-10-13T03:45:30;102045.45;;;2.85;89.57
62895;BME280;49204;44.916;37.998;2022-10-13T03:47:59;102046.27;;;2.81;89.54
62895;BME280;49204;44.916;37.998;2022-10-13T03:50:28;102039.72;;;2.77;89.56
62895;BME280;49204;44.916;37.998;2022-10-13T03:52:57;102047.01;;;2.73;89.56
62895;BME280;49204;44.916;37.998;2022-10-13T03:55:25;102043.98;;;2.72;89.67
62895;BME280;49204;44.916;37.998;2022-10-13T03:57:54;102036.17;;;2.72;89.76
62895;BME280;49204;44.916;37.998;2022-10-13T04:00:23;102044.00;;;2.75;89.79
62895;BME280;49204;44.916;37.998;2022-10-13T04:02:52;102044.92;;;2.77;89.78
62895;BME280;49204;44.916;37.998;2022-10-13T04:05:20;102045.81;;;2.80;89.80
62895;BME280;49204;44.916;37.998;2022-10-13T04:07:49;102049.38;;;2.87;89.81
62895;BME280;49204;44.916;37.998;2022-10-13T04:10:23;102046.48;;;2.95;89.63
62895;BME280;49204;44.916;37.998;2022-10-13T04:12:51;102054.83;;;3.05;89.50
62895;BME280;49204;44.916;37.998;2022-10-13T04:15:20;102049.31;;;3.14;89.42
62895;BME280;49204;44.916;37.998;2022-10-13T04:17:49;102050.69;;;3.20;89.43
62895;BME280;49204;44.916;37.998;2022-10-13T04:20:18;102047.26;;;3.24;89.43
62895;BME280;49204;44.916;37.998;2022-10-13T04:22:47;102049.47;;;3.27;89.39
62895;BME280;49204;44.916;37.998;2022-10-13T04:25:15;102052.15;;;3.32;89.37
62895;BME280;49204;44.916;37.998;2022-10-13T04:27:44;102061.80;;;3.42;89.29
62895;BME280;49204;44.916;37.998;2022-10-13T04:30:14;102053.25;;;3.53;89.15
62895;BME280;49204;44.916;37.998;2022-10-13T04:32:43;102061.59;;;3.63;88.99
62895;BME280;49204;44.916;37.998;2022-10-13T04:35:13;102056.05;;;3.71;88.91
62895;BME280;49204;44.916;37.998;2022-10-13T04:37:42;102059.17;;;3.81;88.79
62895;BME280;49204;44.916;37.998;2022-10-13T04:40:12;102053.17;;;3.89;88.68
62895;BME280;49204;44.916;37.998;2022-10-13T04:42:41;102061.95;;;3.97;88.61
62895;BME280;49204;44.916;37.998;2022-10-13T04:45:10;102064.64;;;4.06;88.54
62895;BME280;49204;44.916;37.998;2022-10-13T04:47:41;102065.61;;;4.17;88.41
62895;BME280;49204;44.916;37.998;2022-10-13T04:50:09;102056.58;;;4.28;88.22
62895;BME280;49204;44.916;37.998;2022-10-13T04:52:38;102065.77;;;4.39;88.04
62895;BME280;49204;44.916;37.998;2022-10-13T04:55:08;102061.08;;;4.49;87.85
62895;BME280;49204;44.916;37.998;2022-10-13T04:57:37;102069.42;;;4.59;87.67
62895;BME280;49204;44.916;37.998;2022-10-13T05:00:07;102067.72;;;4.68;87.49
62895;BME280;49204;44.916;37.998;2022-10-13T05:02:36;102063.02;;;4.78;87.31
62895;BME280;49204;44.916;37.998;2022-10-13T05:05:06;102062.19;;;4.88;87.17
62895;BME280;49204;44.916;37.998;2022-10-13T05:07:35;102070.53;;;4.98;87.05
62895;BME280;49204;44.916;37.998;2022-10-13T05:10:04;102064.92;;;5.10;86.93
62895;BME280;49204;44.916;37.998;2022-10-13T05:12:34;102068.04;;;5.29;86.72
62895;BME280;49204;44.916;37.998;2022-10-13T05:15:03;102066.41;;;5.56;86.71
62895;BME280;49204;44.916;37.998;2022-10-13T05:17:31;102068.23;;;5.85;87.05
62895;BME280;49204;44.916;37.998;2022-10-13T05:20:01;102068.73;;;6.07;87.50
62895;BME280;49204;44.916;37.998;2022-10-13T05:22:30;102065.67;;;6.25;87.52
62895;BME280;49204;44.916;37.998;2022-10-13T05:24:59;102068.30;;;6.49;86.97
62895;BME280;49204;44.916;37.998;2022-10-13T05:27:27;102070.41;;;6.82;86.30
62895;BME280;49204;44.916;37.998;2022-10-13T05:29:56;102067.72;;;7.13;85.96
62895;BME280;49204;44.916;37.998;2022-10-13T05:32:25;102073.20;;;7.57;85.23
62895;BME280;49204;44.916;37.998;2022-10-13T05:34:53;102068.52;;;8.07;84.00
62895;BME280;49204;44.916;37.998;2022-10-13T05:37:24;102062.71;;;8.76;82.86
62895;BME280;49204;44.916;37.998;2022-10-13T05:39:53;102055.98;;;9.61;81.95
62895;BME280;49204;44.916;37.998;2022-10-13T05:42:22;102059.86;;;10.51;81.04
62895;BME280;49204;44.916;37.998;2022-10-13T05:44:51;102057.91;;;11.30;80.04
62895;BME280;49204;44.916;37.998;2022-10-13T05:47:19;102059.22;;;12.09;78.53
62895;BME280;49204;44.916;37.998;2022-10-13T05:49:51;102054.05;;;12.90;77.47
62895;BME280;49204;44.916;37.998;2022-10-13T05:52:20;102046.45;;;13.55;75.98
62895;BME280;49204;44.916;37.998;2022-10-13T05:54:57;102043.95;;;14.20;75.10
62895;BME280;49204;44.916;37.998;2022-10-13T05:57:35;102051.69;;;14.78;74.17
62895;BME280;49204;44.916;37.998;2022-10-13T06:00:15;102054.15;;;15.32;72.73
62895;BME280;49204;44.916;37.998;2022-10-13T06:03:00;102055.16;;;15.75;71.05
62895;BME280;49204;44.916;37.998;2022-10-13T06:05:27;102052.83;;;16.32;70.38
62895;BME280;49204;44.916;37.998;2022-10-13T06:07:58;102049.80;;;16.82;69.92
62895;BME280;49204;44.916;37.998;2022-10-13T06:10:27;102050.09;;;17.34;68.95
62895;BME280;49204;44.916;37.998;2022-10-13T06:12:56;102051.27;;;17.94;67.17
62895;BME280;49204;44.916;37.998;2022-10-13T06:15:24;102047.44;;;18.44;66.22
62895;BME280;49204;44.916;37.998;2022-10-13T06:17:55;102043.33;;;18.80;63.36
62895;BME280;49204;44.916;37.998;2022-10-13T06:20:23;102039.55;;;19.26;63.59
62895;BME280;49204;44.916;37.998;2022-10-13T06:22:54;102046.27;;;19.65;62.19
62895;BME280;49204;44.916;37.998;2022-10-13T06:25:23;102047.83;;;20.01;60.99
62895;BME280;49204;44.916;37.998;2022-10-13T06:27:58;102046.57;;;20.30;59.84
62895;BME280;49204;44.916;37.998;2022-10-13T06:30:30;102038.20;;;20.88;58.90
62895;BME280;49204;44.916;37.998;2022-10-13T06:32:59;102033.12;;;21.27;57.88
62895;BME280;49204;44.916;37.998;2022-10-13T06:35:27;102034.17;;;21.80;56.71
62895;BME280;49204;44.916;37.998;2022-10-13T06:37:57;102033.56;;;22.22;55.48
62895;BME280;49204;44.916;37.998;2022-10-13T06:40:25;102035.05;;;22.66;54.50
62895;BME280;49204;44.916;37.998;2022-10-13T06:42:54;102032.89;;;22.97;52.76
62895;BME280;49204;44.916;37.998;2022-10-13T06:45:23;102034.98;;;22.99;51.33
62895;BME280;49204;44.916;37.998;2022-10-13T06:47:53;102029.23;;;23.11;50.75
62895;BME280;49204;44.916;37.998;2022-10-13T06:50:22;102040.27;;;23.50;49.69
62895;BME280;49204;44.916;37.998;2022-10-13T06:52:53;102036.87;;;23.54;47.77
62895;BME280;49204;44.916;37.998;2022-10-13T06:55:22;102034.97;;;23.80;47.47
62895;BME280;49204;44.916;37.998;2022-10-13T06:57:51;102031.28;;;24.00;46.63
62895;BME280;49204;44.916;37.998;2022-10-13T07:00:20;102027.66;;;24.23;45.75
62895;BME280;49204;44.916;37.998;2022-10-13T07:02:50;102026.70;;;24.24;44.20
62895;BME280;49204;44.916;37.998;2022-10-13T07:05:19;102022.34;;;24.35;43.79
62895;BME280;49204;44.916;37.998;2022-10-13T07:07:55;102017.38;;;24.64;43.57
62895;BME280;49204;44.916;37.998;2022-10-13T07:10:21;102023.14;;;24.59;42.35
62895;BME280;49204;44.916;37.998;2022-10-13T07:12:49;102020.27;;;24.38;41.89
62895;BME280;49204;44.916;37.998;2022-10-13T07:15:18;102022.08;;;24.38;41.60
62895;BME280;49204;44.916;37.998;2022-10-13T07:17:48;102009.69;;;24.71;41.63
62895;BME280;49204;44.916;37.998;2022-10-13T07:20:19;102011.89;;;25.11;41.26
62895;BME280;49204;44.916;37.998;2022-10-13T07:22:48;102011.34;;;25.51;40.86
62895;BME280;49204;44.916;37.998;2022-10-13T07:25:18;102013.20;;;25.94;40.30
62895;BME280;49204;44.916;37.998;2022-10-13T07:27:47;102015.77;;;25.90;39.50
62895;BME280;49204;44.916;37.998;2022-10-13T07:30:16;102012.45;;;25.54;37.97
62895;BME280;49204;44.916;37.998;2022-10-13T07:32:46;102016.64;;;25.41;38.12
62895;BME280;49204;44.916;37.998;2022-10-13T07:35:16;102006.41;;;25.61;38.10
62895;BME280;49204;44.916;37.998;2022-10-13T07:37:45;102003.66;;;25.84;37.10
62895;BME280;49204;44.916;37.998;2022-10-13T07:40:14;102002.72;;;25.68;36.62
62895;BME280;49204;44.916;37.998;2022-10-13T07:42:43;102003.83;;;25.71;36.62
62895;BME280;49204;44.916;37.998;2022-10-13T07:45:11;102004.73;;;25.93;36.62
62895;BME280;49204;44.916;37.998;2022-10-13T07:47:40;101996.41;;;26.11;36.08
62895;BME280;49204;44.916;37.998;2022-10-13T07:50:09;101992.51;;;26.31;35.50
62895;BME280;49204;44.916;37.998;2022-10-13T07:52:38;101992.55;;;26.25;35.03
62895;BME280;49204;44.916;37.998;2022-10-13T07:55:09;101989.30;;;26.52;35.28
62895;BME280;49204;44.916;37.998;2022-10-13T07:57:38;101993.44;;;26.56;34.58
62895;BME280;49204;44.916;37.998;2022-10-13T08:00:08;101985.83;;;26.62;34.27
62895;BME280;49204;44.916;37.998;2022-10-13T08:02:41;101986.66;;;26.41;32.54
62895;BME280;49204;44.916;37.998;2022-10-13T08:05:10;101981.38;;;26.45;33.01
62895;BME280;49204;44.916;37.998;2022-10-13T08:07:38;101981.94;;;26.70;32.92
62895;BME280;49204;44.916;37.998;2022-10-13T08:10:08;101974.05;;;26.72;32.79
62895;BME280;49204;44.916;37.998;2022-10-13T08:12:37;101976.14;;;26.53;31.94
62895;BME280;49204;44.916;37.998;2022-10-13T08:15:06;101970.45;;;26.41;31.82
62895;BME280;49204;44.916;37.998;2022-10-13T08:17:35;101960.53;;;26.72;31.83
62895;BME280;49204;44.916;37.998;2022-10-13T08:20:05;101971.93;;;26.76;31.02
62895;BME280;49204;44.916;37.998;2022-10-13T08:22:34;101970.11;;;26.55;30.51
62895;BME280;49204;44.916;37.998;2022-10-13T08:25:03;101961.50;;;26.41;30.68
62895;BME280;49204;44.916;37.998;2022-10-13T08:27:36;101967.45;;;26.71;31.10
62895;BME280;49204;44.916;37.998;2022-10-13T08:30:06;101967.53;;;27.25;31.14
62895;BME280;49204;44.916;37.998;2022-10-13T08:32:36;101965.53;;;27.18;30.46
62895;BME280;49204;44.916;37.998;2022-10-13T08:35:05;101962.81;;;26.92;30.03
62895;BME280;49204;44.916;37.998;2022-10-13T08:37:34;101963.97;;;27.15;30.19
62895;BME280;49204;44.916;37.998;2022-10-13T08:40:03;101967.03;;;27.51;30.24
62895;BME280;49204;44.916;37.998;2022-10-13T08:42:32;101963.03;;;27.84;30.07
62895;BME280;49204;44.916;37.998;2022-10-13T08:45:03;101960.91;;;27.98;29.95
62895;BME280;49204;44.916;37.998;2022-10-13T08:47:39;101956.36;;;27.69;29.57
62895;BME280;49204;44.916;37.998;2022-10-13T08:50:17;101954.83;;;27.31;30.18
62895;BME280;49204;44.916;37.998;2022-10-13T08:57:54;101955.25;;;28.24;28.48
62895;BME280;49204;44.916;37.998;2022-10-13T09:00:25;101945.67;;;27.67;27.18
62895;BME280;49204;44.916;37.998;2022-10-13T09:03:05;101944.41;;;27.52;27.67
62895;BME280;49204;44.916;37.998;2022-10-13T09:05:36;101941.95;;;27.68;27.64
62895;BME280;49204;44.916;37.998;2022-10-13T09:08:10;101942.17;;;27.81;27.42
62895;BME280;49204;44.916;37.998;2022-10-13T09:10:45;101929.77;;;27.88;27.03
62895;BME280;49204;44.916;37.998;2022-10-13T09:13:17;101925.23;;;28.22;26.94
62895;BME280;49204;44.916;37.998;2022-10-13T09:15:47;101925.13;;;28.51;26.94
62895;BME280;49204;44.916;37.998;2022-10-13T09:18:17;101921.81;;;28.29;26.66
62895;BME280;49204;44.916;37.998;2022-10-13T09:20:46;101914.69;;;28.66;26.67
62895;BME280;49204;44.916;37.998;2022-10-13T09:23:20;101914.34;;;28.93;26.34
62895;BME280;49204;44.916;37.998;2022-10-13T09:25:51;101905.98;;;29.36;26.13
62895;BME280;49204;44.916;37.998;2022-10-13T09:28:29;101912.62;;;29.37;25.71
62895;BME280;49204;44.916;37.998;2022-10-13T09:31:26;101910.48;;;28.81;25.49
62895;BME280;49204;44.916;37.998;2022-10-13T09:37:03;101897.10;;;27.85;26.09
62895;BME280;49204;44.916;37.998;2022-10-13T09:39:32;101898.33;;;27.48;26.19
62895;BME280;49204;44.916;37.998;2022-10-13T09:42:22;101899.55;;;27.69;26.48
62895;BME280;49204;44.916;37.998;2022-10-13T09:45:11;101891.80;;;28.03;25.96
62895;BME280;49204;44.916;37.998;2022-10-13T09:47:32;101898.61;;;28.64;26.04
62895;BME280;49204;44.916;37.998;2022-10-13T09:50:15;101894.69;;;29.22;25.71
62895;BME280;49204;44.916;37.998;2022-10-13T09:52:45;101890.27;;;29.61;25.53
62895;BME280;49204;44.916;37.998;2022-10-13T09:55:32;101892.66;;;29.60;25.50
62895;BME280;49204;44.916;37.998;2022-10-13T09:58:13;101892.27;;;29.55;25.58
62895;BME280;49204;44.916;37.998;2022-10-13T10:00:38;101894.59;;;29.50;25.21
62895;BME280;49204;44.916;37.998;2022-10-13T10:03:16;101896.12;;;29.53;25.08
62895;BME280;49204;44.916;37.998;2022-10-13T10:05:52;101882.54;;;29.31;24.93
62895;BME280;49204;44.916;37.998;2022-10-13T10:11:29;101873.45;;;29.04;25.47
62895;BME280;49204;44.916;37.998;2022-10-13T10:14:04;101872.16;;;29.12;25.28
62895;BME280;49204;44.916;37.998;2022-10-13T10:16:39;101868.95;;;28.95;24.98
62895;BME280;49204;44.916;37.998;2022-10-13T10:19:27;101872.60;;;28.58;25.17
62895;BME280;49204;44.916;37.998;2022-10-13T10:24:45;101865.14;;;28.87;25.60
62895;BME280;49204;44.916;37.998;2022-10-13T10:27:14;101863.94;;;29.18;25.54
62895;BME280;49204;44.916;37.998;2022-10-13T10:29:54;101859.98;;;28.80;25.80
62895;BME280;49204;44.916;37.998;2022-10-13T10:40:49;101857.62;;;28.26;26.64
62895;BME280;49204;44.916;37.998;2022-10-13T10:43:30;101854.78;;;27.84;26.89
62895;BME280;49204;44.916;37.998;2022-10-13T10:45:59;101852.80;;;27.43;27.39
62895;BME280;49204;44.916;37.998;2022-10-13T10:48:35;101849.26;;;27.66;27.27
62895;BME280;49204;44.916;37.998;2022-10-13T10:51:07;101849.23;;;27.86;26.67
62895;BME280;49204;44.916;37.998;2022-10-13T10:53:43;101852.81;;;27.96;26.52
62895;BME280;49204;44.916;37.998;2022-10-13T10:56:24;101843.67;;;27.97;26.70
62895;BME280;49204;44.916;37.998;2022-10-13T11:01:45;101846.72;;;27.88;27.00
62895;BME280;49204;44.916;37.998;2022-10-13T11:04:32;101844.09;;;28.02;26.92
62895;BME280;49204;44.916;37.998;2022-10-13T11:07:02;101843.95;;;27.84;26.54
62895;BME280;49204;44.916;37.998;2022-10-13T11:15:10;101842.16;;;26.00;28.24
62895;BME280;49204;44.916;37.998;2022-10-13T11:17:40;101837.72;;;26.05;28.24
62895;BME280;49204;44.916;37.998;2022-10-13T11:25:42;101841.28;;;25.85;27.83
62895;BME280;49204;44.916;37.998;2022-10-13T11:30:56;101838.30;;;24.70;28.40
62895;BME280;49204;44.916;37.998;2022-10-13T11:36:30;101837.08;;;23.89;29.27
62895;BME280;49204;44.916;37.998;2022-10-13T11:41:34;101839.11;;;22.72;30.70
62895;BME280;49204;44.916;37.998;2022-10-13T11:44:14;101844.08;;;22.21;31.22
62895;BME280;49204;44.916;37.998;2022-10-13T11:55:11;101838.62;;;21.51;31.96
62895;BME280;49204;44.916;37.998;2022-10-13T11:57:41;101842.39;;;21.42;31.88
62895;BME280;49204;44.916;37.998;2022-10-13T12:00:15;101845.39;;;21.30;31.72
62895;BME280;49204;44.916;37.998;2022-10-13T12:02:52;101838.36;;;21.21;31.83
62895;BME280;49204;44.916;37.998;2022-10-13T12:05:24;101837.73;;;21.11;31.88
62895;BME280;49204;44.916;37.998;2022-10-13T12:07:55;101841.81;;;20.89;31.52
62895;BME280;49204;44.916;37.998;2022-10-13T12:10:29;101834.77;;;20.59;31.27
62895;BME280;49204;44.916;37.998;2022-10-13T12:13:00;101839.69;;;20.38;31.67
62895;BME280;49204;44.916;37.998;2022-10-13T12:15:38;101833.00;;;20.31;32.06
62895;BME280;49204;44.916;37.998;2022-10-13T12:18:22;101835.95;;;20.27;32.29
62895;BME280;49204;44.916;37.998;2022-10-13T12:20:56;101841.20;;;20.28;32.50
62895;BME280;49204;44.916;37.998;2022-10-13T12:23:26;101833.19;;;20.28;32.57
62895;BME280;49204;44.916;37.998;2022-10-13T12:25:55;101835.28;;;20.30;32.53
62895;BME280;49204;44.916;37.998;2022-10-13T12:28:44;101837.77;;;20.26;32.38
62895;BME280;49204;44.916;37.998;2022-10-13T12:34:00;101838.34;;;20.17;32.59
62895;BME280;49204;44.916;37.998;2022-10-13T12:36:31;101834.05;;;20.07;32.90
62895;BME280;49204;44.916;37.998;2022-10-13T12:39:04;101834.98;;;19.92;32.94
62895;BME280;49204;44.916;37.998;2022-10-13T12:41:45;101838.70;;;19.82;33.07
62895;BME280;49204;44.916;37.998;2022-10-13T12:44:23;101831.59;;;19.66;33.32
62895;BME280;49204;44.916;37.998;2022-10-13T12:46:56;101834.39;;;19.49;33.61
62895;BME280;49204;44.916;37.998;2022-10-13T12:49:28;101839.14;;;19.37;33.91
62895;BME280;49204;44.916;37.998;2022-10-13T12:52:05;101837.74;;;19.22;33.81
62895;BME280;49204;44.916;37.998;2022-10-13T12:54:44;101834.23;;;19.06;33.92
62895;BME280;49204;44.916;37.998;2022-10-13T12:57:21;101838.93;;;18.94;34.25
62895;BME280;49204;44.916;37.998;2022-10-13T12:59:50;101834.59;;;18.84;34.43
62895;BME280;49204;44.916;37.998;2022-10-13T13:02:30;101838.52;;;18.77;34.58
62895;BME280;49204;44.916;37.998;2022-10-13T13:04:53;101836.38;;;18.67;34.56
62895;BME280;49204;44.916;37.998;2022-10-13T13:07:30;101833.92;;;18.56;34.81
62895;BME280;49204;44.916;37.998;2022-10-13T13:10:14;101827.92;;;18.43;35.00
62895;BME280;49204;44.916;37.998;2022-10-13T13:12:43;101833.20;;;18.36;35.00
62895;BME280;49204;44.916;37.998;2022-10-13T13:15:29;101839.66;;;18.23;34.91
62895;BME280;49204;44.916;37.998;2022-10-13T13:17:51;101834.91;;;18.12;34.79
62895;BME280;49204;44.916;37.998;2022-10-13T13:20:31;101830.47;;;18.04;34.89
62895;BME280;49204;44.916;37.998;2022-10-13T13:23:01;101834.63;;;17.92;34.96
62895;BME280;49204;44.916;37.998;2022-10-13T13:25:29;101834.63;;;17.84;34.97
62895;BME280;49204;44.916;37.998;2022-10-13T13:28:02;101835.66;;;17.72;35.07
62895;BME280;49204;44.916;37.998;2022-10-13T13:30:31;101829.48;;;17.63;35.18
62895;BME280;49204;44.916;37.998;2022-10-13T13:32:59;101829.95;;;17.54;35.01
62895;BME280;49204;44.916;37.998;2022-10-13T13:35:28;101829.31;;;17.49;34.90
62895;BME280;49204;44.916;37.998;2022-10-13T13:37:57;101835.48;;;17.41;35.07
62895;BME280;49204;44.916;37.998;2022-10-13T13:40:27;101832.91;;;17.30;35.42
62895;BME280;49204;44.916;37.998;2022-10-13T13:42:56;101828.27;;;17.25;35.41
62895;BME280;49204;44.916;37.998;2022-10-13T13:45:26;101825.92;;;17.19;35.36
62895;BME280;49204;44.916;37.998;2022-10-13T13:47:55;101826.92;;;17.16;35.34
62895;BME280;49204;44.916;37.998;2022-10-13T13:50:33;101831.09;;;17.13;35.40
62895;BME280;49204;44.916;37.998;2022-10-13T13:53:03;101825.19;;;17.07;35.53
62895;BME280;49204;44.916;37.998;2022-10-13T13:55:33;101826.49;;;16.98;35.78
62895;BME280;49204;44.916;37.998;2022-10-13T13:58:03;101827.80;;;16.89;36.01
62895;BME280;49204;44.916;37.998;2022-10-13T14:00:32;101829.63;;;16.78;36.22
62895;BME280;49204;44.916;37.998;2022-10-13T14:03:00;101827.86;;;16.69;36.44
62895;BME280;49204;44.916;37.998;2022-10-13T14:05:29;101827.37;;;16.60;36.59
62895;BME280;49204;44.916;37.998;2022-10-13T14:07:58;101824.19;;;16.52;36.72
62895;BME280;49204;44.916;37.998;2022-10-13T14:10:27;101824.11;;;16.45;36.88
62895;BME280;49204;44.916;37.998;2022-10-13T14:12:56;101827.64;;;16.35;37.06
62895;BME280;49204;44.916;37.998;2022-10-13T14:15:25;101816.33;;;16.21;37.31
62895;BME280;49204;44.916;37.998;2022-10-13T14:17:54;101823.98;;;16.09;37.61